Aviation Digital Data Service (ADDS)

Output produced by METARs form (1446 UTC 23 January 2017)
found at http://aviationweather.gov/adds/metars/
 
KGSO 231404Z 2314/2412 07012KT 3SM SHRA SCT006 BKN015 OVC035 
     TEMPO 2314/2316 2SM RA BR BKN006 
     FM231600 23004KT P6SM VCSH BKN025 
     FM240000 33006KT 4SM BR VCSH OVC007 
     FM240600 32009KT P6SM OVC050